Auch-Lamothe Airport

LFDH · Gers, Occitanie, 法国

罗盘
风向 的 风向 280° Auch-Lamothe Airport 36/18
风: 8 kt, 3 beaufort

1 kt

8 kt
改变
0 1.000 2.000 3.000 4.000 5.000
FEW 2.400 ft
BKN 3.000 ft
BKN 3.800 ft
SPECI LFBA 281230Z AUTO 28008KT 9999 3000 RA FEW024/// BKN030/// BKN038/// ///CB 12/10 Q1018 BECMG NSW

METAR Auch-Lamothe Airport - LFDH

Auch-Lamothe Airport是,法国中的中型机场。 该机场有2条跑道: 36/18 和 18/36. 该领域的国际民航组织标志是LFDH.

这份报告是针对2022年11月28日 13:30, 当地时间在Agen-La Garenne Airport进行的。

机场观察

风向为280°,速度为8 kt。

可见度为3 km 或者更多。

有几云在2.400 ft的高度, 碎云在3.000 ft的高度 和 碎云在3.800 ft的高度。 破损或更高的上限为3.000 ft。

当前天气为雨。 温度和风寒是12 °C。 露点为10 °C,相对湿度为88%。 海平面上的气压为1018 hPa (QNH)。

发展趋势

  • 变得

    可变方向的风很小或没有。 没有观察到明显的天气.

白天

今天,太阳从08:07升起,在17:23降落。 这适用于Auch-Lamothe Airport,世界夏令时可能有所不同。 当地时间与世界标准时间之间的时差为+1 小时。 当前,没有夏令时有效。

公司介绍

在这个机场,你可以找到飞行俱乐部。 本场上唯一已知的公司是Aéroclub Gascon。

体会

到Vliegles.nl去找飞行课程,跳伞和其他飞行体验。 浏览页面,了解Auch-Lamothe Airport附近所有可用的活动。 你也可以使用搜索功能来寻找你所在地附近的特定飞行课程、跳伞或其他飞行体验。

跑道

Id 标题 侧风 逆风 侧风 %
36/18 004°-184° 8 kt 99 %
18/36 184°-364° 8 kt 99 %

逆风成分最大的方向会被突出显示,并用于横风计算。 这并不一定意味着这个方向在使用。

乌云

2.400 ft FEW 几云
3.000 ft BKN 碎云
3.800 ft BKN 碎云
- NSW 变得 没有观察到明显的天气

温度 & 天气

天气
温度 12 °C
露点 10 °C
相对湿度 88%
Kp-index 2 (0-9)

白天

日出
08:09
中午
12:45
日落
17:21 (3:27)

小工具

你想在你的网站上有一个关于Auch-Lamothe Airport的当前航空天气(METAR)的小部件吗?

显示HTML代码

我们和第三方通过cookies跟踪您在我们网站上的互联网行为。如果你继续,我们认为你同意我们的饼干政策